Time;durP1;ratioP1;P1;durP2;ratioP2;P2;SDS_P1;SDS_P2;PMS_P1;PMS_P2;Temp;Humidity;BMP_temperature;BMP_pressure;BME280_temperature;BME280_humidity;BME280_pressure;Samples;Min_cycle;Max_cycle;Signal;HPM_P1;HPM_P2
2021/07/02 00:00:35;;;;;;;10.10;9.00;;;17.60;99.90;;;;;;4997376;28;20191;-84
2021/07/02 00:03:04;;;;;;;10.23;8.53;;;17.70;99.90;;;;;;5014749;28;20175;-84
2021/07/02 00:05:32;;;;;;;9.77;8.67;;;17.70;99.90;;;;;;5013463;28;20185;-84
2021/07/02 00:07:58;;;;;;;11.50;8.73;;;17.70;99.90;;;;;;5013723;28;21204;-83
2021/07/02 00:10:29;;;;;;;14.33;9.57;;;17.60;99.90;;;;;;4996727;28;20594;-84
2021/07/02 00:12:55;;;;;;;12.33;8.70;;;17.60;99.90;;;;;;5013998;28;20213;-85
2021/07/02 00:15:25;;;;;;;11.00;7.77;;;17.60;99.90;;;;;;5016765;28;20570;-84
2021/07/02 00:17:54;;;;;;;14.53;8.30;;;17.60;99.90;;;;;;4981383;28;20232;-84
2021/07/02 00:20:19;;;;;;;14.23;9.10;;;17.60;99.90;;;;;;4999812;28;20578;-84
2021/07/02 00:22:48;;;;;;;13.57;9.60;;;17.60;99.90;;;;;;4969238;28;20677;-84
2021/07/02 00:25:13;;;;;;;11.03;9.20;;;17.50;99.90;;;;;;4995366;28;20645;-84
2021/07/02 00:27:39;;;;;;;11.23;9.77;;;17.50;99.90;;;;;;4995436;28;20205;-83
2021/07/02 00:30:06;;;;;;;11.40;9.20;;;17.50;99.90;;;;;;4944108;28;20173;-84
2021/07/02 00:32:31;;;;;;;11.83;8.57;;;17.50;99.90;;;;;;4977500;28;20199;-85
2021/07/02 00:34:57;;;;;;;11.60;8.70;;;17.50;99.90;;;;;;4995802;28;20609;-85
2021/07/02 00:37:23;;;;;;;9.13;8.17;;;17.50;99.90;;;;;;4991839;28;20183;-85
2021/07/02 00:39:48;;;;;;;10.70;8.47;;;17.60;99.90;;;;;;4993373;28;20182;-85
2021/07/02 00:42:14;;;;;;;10.43;9.40;;;17.60;99.90;;;;;;4975933;28;20277;-85
2021/07/02 00:44:46;;;;;;;12.43;9.93;;;17.60;99.90;;;;;;4975494;28;20682;-85
2021/07/02 00:47:15;;;;;;;11.87;10.10;;;17.50;99.90;;;;;;4995858;28;20692;-84
2021/07/02 00:49:42;;;;;;;9.70;8.00;;;17.60;99.90;;;;;;4987901;28;20590;-84
2021/07/02 00:52:09;;;;;;;13.10;9.30;;;17.60;99.90;;;;;;4976680;28;20614;-85
2021/07/02 00:54:38;;;;;;;11.07;8.60;;;17.60;99.90;;;;;;4976654;28;20566;-84
2021/07/02 00:57:05;;;;;;;10.30;9.13;;;17.60;99.90;;;;;;4962112;28;20646;-83
2021/07/02 00:59:32;;;;;;;11.50;9.10;;;17.50;99.90;;;;;;4994114;28;20590;-84
2021/07/02 01:01:58;;;;;;;12.23;9.80;;;17.60;99.90;;;;;;5009063;28;20624;-84
2021/07/02 01:04:25;;;;;;;11.93;9.20;;;17.60;99.90;;;;;;4974486;28;20593;-83
2021/07/02 01:06:53;;;;;;;10.33;9.23;;;17.60;99.90;;;;;;5001324;28;20605;-84
2021/07/02 01:09:22;;;;;;;11.40;9.10;;;17.50;99.90;;;;;;4995199;28;20673;-84
2021/07/02 01:11:48;;;;;;;13.37;9.17;;;17.60;99.90;;;;;;4993071;28;20726;-84
2021/07/02 01:14:14;;;;;;;14.13;9.60;;;17.50;99.90;;;;;;4980660;28;20642;-84
2021/07/02 01:16:41;;;;;;;12.40;8.83;;;17.60;99.90;;;;;;5007642;28;20267;-84
2021/07/02 01:19:07;;;;;;;10.73;9.03;;;17.60;99.90;;;;;;4964492;28;20585;-85
2021/07/02 01:21:34;;;;;;;12.77;10.13;;;17.60;99.90;;;;;;4999662;28;20609;-84
2021/07/02 01:24:02;;;;;;;9.83;8.47;;;17.60;99.90;;;;;;4996541;28;20691;-84
2021/07/02 01:26:30;;;;;;;14.33;9.50;;;17.60;99.90;;;;;;4992722;28;20597;-84
2021/07/02 01:28:58;;;;;;;9.67;8.67;;;17.60;99.90;;;;;;4993314;28;20634;-84
2021/07/02 01:31:24;;;;;;;9.00;8.10;;;17.50;99.90;;;;;;4995884;28;21077;-84
2021/07/02 01:33:50;;;;;;;10.20;7.27;;;17.50;99.90;;;;;;4996334;28;20570;-85
2021/07/02 01:36:19;;;;;;;11.43;9.30;;;17.60;99.90;;;;;;5000237;28;20613;-84
2021/07/02 01:38:46;;;;;;;10.63;8.20;;;17.60;99.90;;;;;;5000459;28;20582;-84
2021/07/02 01:41:13;;;;;;;9.57;8.07;;;17.50;99.90;;;;;;5000010;28;20964;-84
2021/07/02 01:43:40;;;;;;;10.30;8.40;;;17.50;99.90;;;;;;4997946;28;20577;-84
2021/07/02 01:46:06;;;;;;;14.27;9.17;;;17.50;99.90;;;;;;4996010;28;20586;-84
2021/07/02 01:48:34;;;;;;;9.97;8.20;;;17.50;99.90;;;;;;5012804;28;20999;-83
2021/07/02 01:51:00;;;;;;;10.63;8.10;;;17.40;99.90;;;;;;5013490;28;21017;-83
2021/07/02 01:53:28;;;;;;;11.97;8.50;;;17.30;99.90;;;;;;4997017;28;20602;-83
2021/07/02 01:55:54;;;;;;;10.40;6.63;;;17.30;99.90;;;;;;4997517;28;20673;-83
2021/07/02 01:58:21;;;;;;;12.83;8.83;;;17.30;99.90;;;;;;4996665;28;20918;-83
2021/07/02 02:00:59;;;;;;;10.13;8.83;;;17.20;99.90;;;;;;4986208;28;20597;-83
2021/07/02 02:03:25;;;;;;;11.00;8.87;;;17.10;99.90;;;;;;5018554;28;20628;-84
2021/07/02 02:05:51;;;;;;;11.03;7.73;;;17.10;99.90;;;;;;5018232;28;20562;-84
2021/07/02 02:08:18;;;;;;;12.70;8.20;;;17.10;99.90;;;;;;5018761;28;20689;-83
2021/07/02 02:10:47;;;;;;;10.27;7.30;;;17.00;99.90;;;;;;5018890;28;20626;-84
2021/07/02 02:13:13;;;;;;;11.10;8.33;;;16.90;99.90;;;;;;5018810;28;20614;-84
2021/07/02 02:15:42;;;;;;;12.40;8.37;;;16.90;99.90;;;;;;5019192;28;20690;-85
2021/07/02 02:18:11;;;;;;;10.33;7.87;;;16.80;99.90;;;;;;5014421;28;21228;-84
2021/07/02 02:20:41;;;;;;;11.47;8.60;;;16.80;99.90;;;;;;4997001;28;20610;-85
2021/07/02 02:23:07;;;;;;;11.77;10.50;;;16.70;99.90;;;;;;5001251;28;20574;-85
2021/07/02 02:25:33;;;;;;;10.70;8.80;;;16.70;99.90;;;;;;4997679;28;20559;-85
2021/07/02 02:27:59;;;;;;;11.47;7.60;;;16.60;99.90;;;;;;4997790;28;20640;-84
2021/07/02 02:30:25;;;;;;;10.47;8.30;;;16.60;99.90;;;;;;4997545;28;20566;-84
2021/07/02 02:32:53;;;;;;;11.20;9.10;;;16.50;99.90;;;;;;4964288;28;20610;-84
2021/07/02 02:35:32;;;;;;;12.67;9.13;;;16.50;99.90;;;;;;4995124;28;20574;-84
2021/07/02 02:38:01;;;;;;;11.87;8.77;;;16.50;99.90;;;;;;4981568;28;20593;-84
2021/07/02 02:40:28;;;;;;;9.83;8.00;;;16.40;99.90;;;;;;5016839;28;20912;-84
2021/07/02 02:42:54;;;;;;;17.50;9.70;;;16.40;99.90;;;;;;4994127;28;20624;-83
2021/07/02 02:45:23;;;;;;;11.90;9.07;;;16.40;99.90;;;;;;4995325;28;21121;-84
2021/07/02 02:47:50;;;;;;;11.27;8.03;;;16.30;99.90;;;;;;4996356;28;20676;-84
2021/07/02 02:50:16;;;;;;;14.27;8.40;;;16.30;99.90;;;;;;4999303;28;20648;-84
2021/07/02 02:52:42;;;;;;;9.30;8.07;;;16.30;99.90;;;;;;4978979;28;20590;-84
2021/07/02 02:55:08;;;;;;;10.87;9.00;;;16.20;99.90;;;;;;5008264;23;20770;-86
2021/07/02 02:57:34;;;;;;;11.07;9.10;;;16.20;99.90;;;;;;4995843;28;20629;-87
2021/07/02 03:00:00;;;;;;;10.43;8.33;;;16.20;99.90;;;;;;5000497;28;20577;-87
2021/07/02 03:02:26;;;;;;;11.30;8.00;;;16.20;99.90;;;;;;4980563;28;20562;-87
2021/07/02 03:04:55;;;;;;;10.63;7.93;;;16.20;99.90;;;;;;4996901;28;20606;-87
2021/07/02 03:07:22;;;;;;;13.50;8.80;;;16.20;99.90;;;;;;4996103;28;20633;-86
2021/07/02 03:09:48;;;;;;;8.60;7.70;;;16.20;99.90;;;;;;4978124;28;20566;-86
2021/07/02 03:12:14;;;;;;;9.40;8.13;;;16.30;99.90;;;;;;5002702;28;20651;-87
2021/07/02 03:14:42;;;;;;;13.97;8.43;;;16.30;99.90;;;;;;4981083;28;20594;-87
2021/07/02 03:17:09;;;;;;;11.07;9.60;;;16.30;99.90;;;;;;4981690;28;20570;-85
2021/07/02 03:19:39;;;;;;;10.20;8.53;;;16.30;99.90;;;;;;4998123;28;20566;-85
2021/07/02 03:22:06;;;;;;;15.23;8.17;;;16.40;99.90;;;;;;4982026;28;21129;-85
2021/07/02 03:24:36;;;;;;;11.70;7.80;;;16.40;99.90;;;;;;4979357;28;20606;-85
2021/07/02 03:27:03;;;;;;;14.03;9.40;;;16.40;99.90;;;;;;4994407;28;20574;-77
2021/07/02 03:29:29;;;;;;;17.30;8.40;;;16.40;99.90;;;;;;4992307;28;20606;-77
2021/07/02 03:31:57;;;;;;;10.87;9.07;;;16.50;99.90;;;;;;4993797;28;20570;-77
2021/07/02 03:34:23;;;;;;;9.93;7.70;;;16.50;99.90;;;;;;4992431;28;20613;-77
2021/07/02 03:36:52;;;;;;;14.67;8.90;;;16.50;99.90;;;;;;4976401;28;20590;-77
2021/07/02 03:39:18;;;;;;;10.70;8.37;;;16.50;99.90;;;;;;4975906;28;20562;-77
2021/07/02 03:41:44;;;;;;;10.17;7.93;;;16.50;99.90;;;;;;4976221;28;20565;-76
2021/07/02 03:44:12;;;;;;;14.60;9.33;;;16.50;99.90;;;;;;4975990;28;20187;-76
2021/07/02 03:46:38;;;;;;;10.33;8.20;;;16.50;99.90;;;;;;4994005;28;20593;-76
2021/07/02 03:49:03;;;;;;;13.30;7.50;;;16.50;99.90;;;;;;4979160;28;20618;-76
2021/07/02 03:51:32;;;;;;;8.47;6.93;;;16.50;99.90;;;;;;4975865;28;20639;-76
2021/07/02 03:53:58;;;;;;;10.07;8.63;;;16.50;99.90;;;;;;4974717;28;20612;-76
2021/07/02 03:56:23;;;;;;;8.67;7.50;;;16.40;99.90;;;;;;4993012;28;20209;-76
2021/07/02 03:58:49;;;;;;;11.47;8.67;;;16.40;99.90;;;;;;4992793;28;20175;-77
2021/07/02 04:01:15;;;;;;;12.33;8.13;;;16.40;99.90;;;;;;4993177;28;20221;-77
2021/07/02 04:03:40;;;;;;;9.57;7.53;;;16.40;99.90;;;;;;4993035;28;20190;-77
2021/07/02 04:06:06;;;;;;;10.50;7.00;;;16.40;99.90;;;;;;4993124;28;20174;-77
2021/07/02 04:08:32;;;;;;;9.53;7.00;;;16.40;99.90;;;;;;4991459;28;20818;-78
2021/07/02 04:10:58;;;;;;;10.30;8.07;;;16.40;99.90;;;;;;4991416;28;20177;-77
2021/07/02 04:13:24;;;;;;;9.17;7.93;;;16.30;99.90;;;;;;4992312;28;20687;-77
2021/07/02 04:15:52;;;;;;;11.07;7.80;;;16.30;99.90;;;;;;4992052;28;20171;-77
2021/07/02 04:18:18;;;;;;;12.90;8.53;;;16.30;99.90;;;;;;4992079;28;20581;-77
2021/07/02 04:20:46;;;;;;;14.40;8.30;;;16.30;99.90;;;;;;4992315;28;20930;-77
2021/07/02 04:23:12;;;;;;;15.60;8.53;;;16.30;99.90;;;;;;4991445;28;20581;-77
2021/07/02 04:25:38;;;;;;;10.10;7.80;;;16.20;99.90;;;;;;4996886;28;20191;-77
2021/07/02 04:28:04;;;;;;;13.00;8.20;;;16.20;99.90;;;;;;4992425;28;20222;-77
2021/07/02 04:30:29;;;;;;;12.03;9.47;;;16.20;99.90;;;;;;4993750;28;20534;-76
2021/07/02 04:32:55;;;;;;;11.20;8.37;;;16.20;99.90;;;;;;4993118;28;21200;-77
2021/07/02 04:35:21;;;;;;;9.63;8.57;;;16.20;99.90;;;;;;4975046;28;20599;-77
2021/07/02 04:37:47;;;;;;;14.77;8.50;;;16.10;99.90;;;;;;4992486;28;20194;-77
2021/07/02 04:40:13;;;;;;;13.27;9.87;;;16.10;99.90;;;;;;4975149;28;20171;-76
2021/07/02 04:42:39;;;;;;;10.00;7.67;;;16.10;99.90;;;;;;4992636;28;20214;-77
2021/07/02 04:45:06;;;;;;;14.67;8.73;;;16.10;99.90;;;;;;4992420;28;20586;-76
2021/07/02 04:47:35;;;;;;;9.93;8.00;;;16.10;99.90;;;;;;4992426;28;20729;-78
2021/07/02 04:50:01;;;;;;;9.53;7.23;;;16.00;99.90;;;;;;4992145;28;20555;-77
2021/07/02 04:52:27;;;;;;;9.67;7.90;;;16.10;99.90;;;;;;4991311;28;20578;-77
2021/07/02 04:54:52;;;;;;;14.77;8.10;;;16.00;99.90;;;;;;4974839;28;20610;-77
2021/07/02 04:57:18;;;;;;;11.60;7.43;;;16.00;99.90;;;;;;4974988;28;20586;-77
2021/07/02 04:59:46;;;;;;;10.37;7.40;;;16.00;99.90;;;;;;4992144;28;20167;-77
2021/07/02 05:02:12;;;;;;;10.87;7.90;;;16.00;99.90;;;;;;4997459;28;20175;-77
2021/07/02 05:04:37;;;;;;;11.20;7.17;;;16.00;99.90;;;;;;4991743;28;20605;-77
2021/07/02 05:07:03;;;;;;;9.83;8.10;;;16.10;99.90;;;;;;4996459;28;20685;-77
2021/07/02 05:09:29;;;;;;;8.43;6.53;;;16.20;99.90;;;;;;4995054;28;20170;-77
2021/07/02 05:11:55;;;;;;;10.47;7.40;;;16.30;99.90;;;;;;4995970;28;20585;-78
2021/07/02 05:14:21;;;;;;;10.60;7.33;;;16.40;99.90;;;;;;4996100;28;20183;-77
2021/07/02 05:16:47;;;;;;;13.27;8.50;;;16.50;99.90;;;;;;4996087;28;20565;-78
2021/07/02 05:19:14;;;;;;;10.53;8.30;;;16.70;99.90;;;;;;4962127;28;20985;-77
2021/07/02 05:21:40;;;;;;;9.97;7.17;;;16.90;99.90;;;;;;4999500;28;20194;-77
2021/07/02 05:24:06;;;;;;;8.27;7.20;;;17.00;99.90;;;;;;5000496;28;20625;-77
2021/07/02 05:26:31;;;;;;;10.50;7.07;;;17.20;99.90;;;;;;4971635;28;20187;-77
2021/07/02 05:28:57;;;;;;;7.50;6.37;;;17.30;99.90;;;;;;4994704;28;21195;-77
2021/07/02 05:31:23;;;;;;;9.33;6.50;;;17.40;99.90;;;;;;4978824;28;20310;-78
2021/07/02 05:33:48;;;;;;;7.67;6.83;;;17.50;99.90;;;;;;4995855;28;20198;-77
2021/07/02 05:36:14;;;;;;;8.80;6.70;;;17.60;99.90;;;;;;4995936;28;20172;-78
2021/07/02 05:38:40;;;;;;;10.70;7.10;;;17.60;99.90;;;;;;5001119;28;20175;-77
2021/07/02 05:41:07;;;;;;;9.40;6.50;;;17.70;99.90;;;;;;4996308;28;20186;-78
2021/07/02 05:43:33;;;;;;;9.80;6.83;;;17.90;99.90;;;;;;4995777;28;20582;-78
2021/07/02 05:46:02;;;;;;;7.07;6.00;;;18.10;99.90;;;;;;4995652;28;20604;-77
2021/07/02 05:48:29;;;;;;;9.53;5.87;;;18.40;99.90;;;;;;4978111;28;20625;-78
2021/07/02 05:50:55;;;;;;;6.90;5.70;;;18.90;99.90;;;;;;4996234;28;20173;-77
2021/07/02 05:53:21;;;;;;;6.40;5.70;;;19.40;99.90;;;;;;4995320;28;20658;-76
2021/07/02 05:55:46;;;;;;;7.80;5.90;;;19.70;99.90;;;;;;4995473;28;20639;-76
2021/07/02 05:58:13;;;;;;;8.80;5.23;;;20.30;99.90;;;;;;4978086;28;21142;-76
2021/07/02 06:00:39;;;;;;;8.50;5.20;;;21.20;99.90;;;;;;4995387;28;20175;-77
2021/07/02 06:03:05;;;;;;;8.37;5.27;;;22.30;99.90;;;;;;4994165;28;20904;-76
2021/07/02 06:05:31;;;;;;;7.03;5.27;;;23.30;99.90;;;;;;4995227;28;20604;-76
2021/07/02 06:07:56;;;;;;;5.40;4.80;;;24.40;99.90;;;;;;4994552;28;20213;-77
2021/07/02 06:10:24;;;;;;;6.13;5.07;;;25.50;99.90;;;;;;4985527;28;20582;-76
2021/07/02 06:12:53;;;;;;;7.30;5.03;;;26.30;99.90;;;;;;4984499;28;20241;-77
2021/07/02 06:15:20;;;;;;;5.40;4.70;;;26.70;99.90;;;;;;4968663;28;20960;-77
2021/07/02 06:17:48;;;;;;;7.70;3.83;;;27.00;99.90;;;;;;4985698;28;20582;-77
2021/07/02 06:20:15;;;;;;;5.07;4.50;;;27.20;99.90;;;;;;4986347;28;20637;-77
2021/07/02 06:22:41;;;;;;;6.40;4.40;;;27.20;99.90;;;;;;4995050;28;20566;-80
2021/07/02 06:25:10;;;;;;;5.23;4.13;;;27.10;99.90;;;;;;4995288;28;20639;-76
2021/07/02 06:27:39;;;;;;;9.03;4.17;;;26.90;99.90;;;;;;4977751;28;21271;-76
2021/07/02 06:30:06;;;;;;;5.53;3.80;;;26.60;99.90;;;;;;4994736;28;20595;-76
2021/07/02 06:32:32;;;;;;;6.97;4.93;;;26.40;99.90;;;;;;4999927;28;20598;-75
2021/07/02 06:34:58;;;;;;;7.40;4.23;;;26.20;99.90;;;;;;4994803;28;20598;-73
2021/07/02 06:37:26;;;;;;;4.80;3.80;;;26.40;99.90;;;;;;4977583;28;20981;-74
2021/07/02 06:39:52;;;;;;;3.30;3.00;;;26.70;99.90;;;;;;4994679;28;20574;-75
2021/07/02 06:42:18;;;;;;;4.43;2.97;;;27.10;99.90;;;;;;4977205;28;20541;-75
2021/07/02 06:44:43;;;;;;;4.50;2.83;;;27.80;99.90;;;;;;4977186;28;20756;-75
2021/07/02 06:47:09;;;;;;;4.20;3.60;;;28.30;99.90;;;;;;4994445;28;20167;-76
2021/07/02 06:49:38;;;;;;;3.90;3.47;;;29.10;99.90;;;;;;4994283;28;20162;-75
2021/07/02 06:52:05;;;;;;;3.37;2.40;;;30.00;99.90;;;;;;4993645;28;20254;-75
2021/07/02 06:54:30;;;;;;;2.90;2.47;;;30.90;99.90;;;;;;4992034;28;20647;-75
2021/07/02 06:57:02;;;;;;;3.43;2.37;;;31.80;99.90;;;;;;4978792;28;20588;-76
2021/07/02 06:59:37;;;;;;;3.33;2.20;;;32.60;99.90;;;;;;4992929;28;20272;-75
2021/07/02 07:02:04;;;;;;;4.23;2.60;;;33.30;99.90;;;;;;4988950;28;20590;-75
2021/07/02 07:04:36;;;;;;;3.73;2.27;;;33.80;99.90;;;;;;4974207;28;20661;-76
2021/07/02 07:07:09;;;;;;;4.43;2.30;;;34.10;99.80;;;;;;4974565;28;20577;-76
2021/07/02 07:09:36;;;;;;;5.43;2.40;;;34.30;97.40;;;;;;4974004;28;20574;-76
2021/07/02 07:12:03;;;;;;;2.80;2.13;;;34.70;96.40;;;;;;4990998;28;21045;-76
2021/07/02 07:14:28;;;;;;;4.20;2.63;;;35.10;95.60;;;;;;4993826;28;20624;-76
2021/07/02 07:16:58;;;;;;;3.50;2.57;;;35.40;94.40;;;;;;4993738;28;20924;-76
2021/07/02 07:19:27;;;;;;;3.37;1.40;;;35.80;93.20;;;;;;4993621;28;20175;-77
2021/07/02 07:21:53;;;;;;;3.83;1.70;;;36.10;91.70;;;;;;4993966;28;20566;-77
2021/07/02 07:24:19;;;;;;;4.00;2.13;;;36.50;90.50;;;;;;4993479;28;20691;-77
2021/07/02 07:26:44;;;;;;;4.17;2.00;;;36.80;88.70;;;;;;4993614;28;20570;-77
2021/07/02 07:29:16;;;;;;;3.53;2.27;;;37.10;84.80;;;;;;4995786;28;20225;-77
2021/07/02 07:31:45;;;;;;;2.70;2.27;;;37.00;81.10;;;;;;4976201;28;20571;-77
2021/07/02 07:34:13;;;;;;;3.70;2.00;;;37.00;79.00;;;;;;4976240;28;20198;-74
2021/07/02 07:36:40;;;;;;;4.10;2.37;;;37.00;74.70;;;;;;4993557;28;20558;-77
2021/07/02 07:39:06;;;;;;;2.80;1.73;;;36.50;70.30;;;;;;4975956;28;20601;-76
2021/07/02 07:41:34;;;;;;;4.03;1.80;;;36.50;71.20;;;;;;4993717;28;20570;-76
2021/07/02 07:44:00;;;;;;;2.10;1.40;;;36.70;72.20;;;;;;4975969;28;20248;-77
2021/07/02 07:46:28;;;;;;;2.37;1.53;;;36.90;70.80;;;;;;4993419;28;20570;-77
2021/07/02 07:48:54;;;;;;;2.50;1.63;;;36.90;69.00;;;;;;4993428;28;21000;-74
2021/07/02 07:53:57;;;;;;;2.63;1.63;;;36.20;65.00;;;;;;4993283;28;21162;-77
2021/07/02 07:56:23;;;;;;;1.80;1.13;;;35.80;63.40;;;;;;4993095;28;20574;-77
2021/07/02 07:58:49;;;;;;;2.80;1.40;;;35.20;62.40;;;;;;4992786;28;20612;-77
2021/07/02 08:01:15;;;;;;;2.33;1.37;;;34.70;61.50;;;;;;4993332;28;20173;-77
2021/07/02 08:03:41;;;;;;;2.90;1.50;;;34.10;61.30;;;;;;4993359;28;20710;-77
2021/07/02 08:06:07;;;;;;;2.83;1.60;;;33.60;60.70;;;;;;4995328;28;20168;-77
2021/07/02 08:08:32;;;;;;;2.57;1.80;;;33.20;60.90;;;;;;4992823;28;20199;-77
2021/07/02 08:10:58;;;;;;;1.50;1.27;;;33.00;62.70;;;;;;4992956;28;20173;-77
2021/07/02 08:13:28;;;;;;;2.17;1.27;;;32.80;62.60;;;;;;4975756;28;20171;-77
2021/07/02 08:15:53;;;;;;;2.80;1.63;;;32.70;62.30;;;;;;4975552;28;20177;-77
2021/07/02 08:18:22;;;;;;;3.00;1.50;;;32.50;62.10;;;;;;4992705;28;20579;-77
2021/07/02 08:20:48;;;;;;;3.13;1.80;;;32.40;61.80;;;;;;4992851;28;20933;-76
2021/07/02 08:23:14;;;;;;;2.33;1.60;;;32.20;62.10;;;;;;4992802;28;20582;-77
2021/07/02 08:25:42;;;;;;;2.97;1.70;;;32.20;62.50;;;;;;4992364;28;20180;-76
2021/07/02 08:30:53;;;;;;;2.50;1.97;;;31.80;62.40;;;;;;4992631;28;20580;-77
2021/07/02 08:33:20;;;;;;;2.40;2.13;;;31.60;61.90;;;;;;4995471;28;20662;-76
2021/07/02 08:35:46;;;;;;;4.23;1.77;;;31.40;62.10;;;;;;4992852;28;20258;-76
2021/07/02 08:38:16;;;;;;;2.80;1.80;;;31.10;61.90;;;;;;4992346;28;20574;-75
2021/07/02 08:40:43;;;;;;;3.57;2.27;;;30.70;60.60;;;;;;4992519;28;21119;-76
2021/07/02 08:43:09;;;;;;;2.97;1.80;;;30.20;60.90;;;;;;4993890;28;20613;-76
2021/07/02 08:45:36;;;;;;;4.37;1.80;;;29.90;61.60;;;;;;4992175;28;20593;-76
2021/07/02 08:48:07;;;;;;;2.47;1.87;;;29.60;62.10;;;;;;4992083;28;20629;-76
2021/07/02 08:50:35;;;;;;;4.07;2.10;;;29.30;62.60;;;;;;4992613;28;21002;-76
2021/07/02 08:53:02;;;;;;;3.70;1.77;;;29.10;63.10;;;;;;4992457;28;20579;-76
2021/07/02 08:55:29;;;;;;;4.07;2.27;;;29.00;63.80;;;;;;5018771;23;20682;-75
2021/07/02 08:57:54;;;;;;;3.83;1.77;;;28.80;64.30;;;;;;5020210;28;20680;-75
2021/07/02 09:00:23;;;;;;;3.20;2.10;;;28.70;64.50;;;;;;5016971;28;20697;-75
2021/07/02 09:02:49;;;;;;;2.57;1.80;;;28.60;64.70;;;;;;5020968;28;20580;-75
2021/07/02 09:05:25;;;;;;;4.53;1.70;;;28.60;64.90;;;;;;5008233;28;20189;-75
2021/07/02 09:07:51;;;;;;;4.27;1.80;;;28.50;63.90;;;;;;5003829;28;20192;-76
2021/07/02 09:10:16;;;;;;;2.27;1.47;;;28.40;64.90;;;;;;5007305;28;20927;-77
2021/07/02 09:12:51;;;;;;;2.63;1.40;;;28.40;65.50;;;;;;4989285;28;20231;-76
2021/07/02 09:15:17;;;;;;;3.07;1.27;;;28.50;65.70;;;;;;4995974;28;20207;-75
2021/07/02 09:17:49;;;;;;;4.93;1.40;;;28.70;67.00;;;;;;5015119;28;20605;-76
2021/07/02 09:20:19;;;;;;;2.30;1.93;;;29.00;67.70;;;;;;5008746;28;20601;-75
2021/07/02 09:22:50;;;;;;;2.63;1.50;;;29.30;67.00;;;;;;5011389;28;20632;-76
2021/07/02 09:25:38;;;;;;;2.33;1.33;;;29.30;65.30;;;;;;5003118;28;21078;-76
2021/07/02 09:28:07;;;;;;;2.20;1.30;;;29.10;64.90;;;;;;5013004;28;20629;-76
2021/07/02 09:30:35;;;;;;;2.30;1.33;;;29.00;65.40;;;;;;5011024;28;20570;-77
2021/07/02 09:33:03;;;;;;;2.27;1.63;;;28.90;64.40;;;;;;5011260;28;20581;-76
2021/07/02 09:35:44;;;;;;;3.60;1.40;;;28.90;65.70;;;;;;5001750;28;20613;-77
2021/07/02 09:38:10;;;;;;;2.00;1.30;;;29.10;65.20;;;;;;4992116;28;20583;-77
2021/07/02 09:40:37;;;;;;;4.20;1.80;;;29.20;65.70;;;;;;5011394;28;20612;-77
2021/07/02 09:43:10;;;;;;;2.53;1.50;;;29.20;65.80;;;;;;5008486;28;20167;-77
2021/07/02 09:45:45;;;;;;;3.03;1.60;;;29.50;66.30;;;;;;4993173;28;21199;-77
2021/07/02 09:48:12;;;;;;;1.80;1.40;;;30.00;66.50;;;;;;5007485;28;20647;-77
2021/07/02 09:50:46;;;;;;;2.77;1.87;;;30.70;68.40;;;;;;5010128;28;20585;-77
2021/07/02 09:53:15;;;;;;;2.63;1.10;;;31.30;67.10;;;;;;4996101;28;20573;-77
2021/07/02 09:55:47;;;;;;;1.83;1.30;;;31.70;66.70;;;;;;5015366;28;20627;-77
2021/07/02 09:58:18;;;;;;;2.10;1.37;;;31.80;62.70;;;;;;4996295;28;20607;-77
2021/07/02 10:00:45;;;;;;;2.00;1.63;;;32.00;62.90;;;;;;5011982;28;20665;-78
2021/07/02 10:03:12;;;;;;;2.63;2.03;;;32.30;63.20;;;;;;5014541;28;20598;-77
2021/07/02 10:05:46;;;;;;;6.93;2.50;;;32.50;61.20;;;;;;4996157;28;20621;-77
2021/07/02 10:08:12;;;;;;;2.93;2.23;;;32.50;59.20;;;;;;5006348;28;20665;-78
2021/07/02 10:10:38;;;;;;;4.10;2.40;;;32.10;58.10;;;;;;5018423;28;20723;-86
2021/07/02 10:13:05;;;;;;;2.27;2.00;;;31.90;58.60;;;;;;5008084;28;20582;-85
2021/07/02 10:15:32;;;;;;;2.30;1.73;;;31.90;59.40;;;;;;5016229;28;20703;-86
2021/07/02 10:17:59;;;;;;;3.00;2.33;;;31.80;58.60;;;;;;4999838;28;20583;-82
2021/07/02 10:20:28;;;;;;;2.30;2.10;;;31.60;58.40;;;;;;5016470;28;20646;-82
2021/07/02 10:22:59;;;;;;;4.80;3.20;;;31.30;58.20;;;;;;5005840;28;20584;-82
2021/07/02 10:25:30;;;;;;;2.97;2.30;;;31.10;57.60;;;;;;4997219;28;20617;-80
2021/07/02 10:27:57;;;;;;;3.20;2.77;;;30.80;58.10;;;;;;5014289;28;20747;-79
2021/07/02 10:30:24;;;;;;;4.03;3.50;;;30.60;58.30;;;;;;5012505;28;20612;-80
2021/07/02 10:32:56;;;;;;;3.30;2.77;;;30.30;58.20;;;;;;4994992;28;20570;-80
2021/07/02 10:35:22;;;;;;;4.80;3.03;;;30.20;59.30;;;;;;5008654;28;20997;-78
2021/07/02 10:37:54;;;;;;;4.57;3.60;;;30.30;59.70;;;;;;5013719;28;20573;-80
2021/07/02 10:40:33;;;;;;;4.90;3.30;;;30.30;59.40;;;;;;4997208;28;20581;-80
2021/07/02 10:43:09;;;;;;;5.10;3.60;;;30.50;59.70;;;;;;5013938;28;20622;-80
2021/07/02 10:45:36;;;;;;;3.77;3.17;;;30.80;58.80;;;;;;5013948;28;20621;-81
2021/07/02 10:48:02;;;;;;;3.23;2.93;;;31.00;59.70;;;;;;5010409;28;20660;-82
2021/07/02 10:50:40;;;;;;;3.50;3.20;;;31.10;59.70;;;;;;5004475;28;20593;-80
2021/07/02 10:53:29;;;;;;;4.13;3.30;;;31.20;59.00;;;;;;5012241;28;21057;-81
2021/07/02 10:55:56;;;;;;;4.43;3.07;;;31.30;58.80;;;;;;4995677;28;20695;-80
2021/07/02 10:58:22;;;;;;;5.00;3.70;;;31.10;58.00;;;;;;4993506;28;20617;-79
2021/07/02 11:01:21;;;;;;;5.73;3.40;;;30.90;57.70;;;;;;5006117;28;20593;-79
2021/07/02 11:03:48;;;;;;;4.30;2.37;;;30.70;57.60;;;;;;4961504;28;20593;-79
2021/07/02 11:06:37;;;;;;;4.00;3.00;;;30.50;57.30;;;;;;5013485;28;20600;-78
2021/07/02 11:09:03;;;;;;;4.30;2.90;;;30.30;57.20;;;;;;5010421;28;21201;-78
2021/07/02 11:12:04;;;;;;;3.23;2.30;;;30.20;57.70;;;;;;5013376;28;20577;-78
2021/07/02 11:14:30;;;;;;;3.20;2.10;;;30.00;58.00;;;;;;4996317;28;21155;-77
2021/07/02 11:17:34;;;;;;;2.73;2.17;;;30.00;58.20;;;;;;4993692;28;20632;-77
2021/07/02 11:20:23;;;;;;;4.47;2.40;;;29.90;58.40;;;;;;4995042;28;20675;-77
2021/07/02 11:22:55;;;;;;;6.50;3.03;;;29.80;58.50;;;;;;5002393;28;20916;-78
2021/07/02 11:25:26;;;;;;;3.37;3.07;;;29.80;58.30;;;;;;5010125;28;20609;-78
2021/07/02 11:28:13;;;;;;;5.33;3.20;;;29.70;58.40;;;;;;5012509;28;20617;-77
2021/07/02 11:30:43;;;;;;;3.00;2.70;;;29.80;59.00;;;;;;5003055;28;20574;-78
2021/07/02 11:33:09;;;;;;;3.90;2.60;;;30.00;60.00;;;;;;5012621;28;20589;-77
2021/07/02 11:35:41;;;;;;;4.87;3.17;;;30.40;61.30;;;;;;4985881;28;20636;-78
2021/07/02 11:38:15;;;;;;;8.13;5.13;;;30.70;60.70;;;;;;4993841;28;20179;-79
2021/07/02 11:41:03;;;;;;;5.53;4.43;;;31.10;61.20;;;;;;5011648;28;20701;-79
2021/07/02 11:43:40;;;;;;;3.37;2.80;;;31.50;60.40;;;;;;4993975;28;20657;-77
2021/07/02 11:46:14;;;;;;;4.43;2.83;;;31.90;60.00;;;;;;5000284;28;20616;-80
2021/07/02 11:48:41;;;;;;;3.53;2.90;;;32.10;58.40;;;;;;5012694;28;20634;-78
2021/07/02 11:51:09;;;;;;;5.90;2.70;;;32.20;58.50;;;;;;5012794;28;21072;-78
2021/07/02 11:53:42;;;;;;;5.23;2.77;;;32.40;58.10;;;;;;5012455;28;20597;-80
2021/07/02 11:56:14;;;;;;;3.20;2.13;;;32.50;57.70;;;;;;5002754;28;20636;-80
2021/07/02 11:58:41;;;;;;;3.17;2.80;;;32.60;57.50;;;;;;5010882;28;21242;-80
2021/07/02 12:01:16;;;;;;;3.43;2.37;;;32.60;56.60;;;;;;4986265;28;21021;-80
2021/07/02 12:03:54;;;;;;;3.87;3.47;;;32.50;56.10;;;;;;5009956;28;20946;-80
2021/07/02 12:06:35;;;;;;;5.10;2.93;;;32.40;55.90;;;;;;5002670;28;20612;-80
2021/07/02 12:09:28;;;;;;;3.23;2.90;;;32.10;55.30;;;;;;5012187;28;21323;-80
2021/07/02 12:11:56;;;;;;;4.63;3.50;;;31.80;55.00;;;;;;5011926;28;20680;-80
2021/07/02 12:14:29;;;;;;;4.43;3.70;;;31.60;55.70;;;;;;5013433;28;20929;-80
2021/07/02 12:16:57;;;;;;;5.70;3.87;;;31.40;56.10;;;;;;4994514;28;20879;-80
2021/07/02 12:19:25;;;;;;;7.80;3.30;;;31.40;56.70;;;;;;5007075;28;20584;-80
2021/07/02 12:21:55;;;;;;;3.33;2.93;;;31.30;56.90;;;;;;5012270;28;20619;-80
2021/07/02 12:24:23;;;;;;;4.37;3.97;;;31.20;56.50;;;;;;5011956;28;20579;-80
2021/07/02 12:26:54;;;;;;;3.10;2.80;;;31.10;56.50;;;;;;5011769;28;20620;-80
2021/07/02 12:29:20;;;;;;;4.20;2.90;;;31.00;56.70;;;;;;5011629;28;20669;-80
2021/07/02 12:31:51;;;;;;;3.50;3.20;;;30.90;56.90;;;;;;4992213;28;20629;-80
2021/07/02 12:34:21;;;;;;;6.30;3.00;;;30.80;56.40;;;;;;5011845;28;20583;-80
2021/07/02 12:37:07;;;;;;;4.67;3.27;;;30.60;56.40;;;;;;4992399;28;20697;-80
2021/07/02 12:39:34;;;;;;;3.23;3.00;;;30.40;57.00;;;;;;4993168;28;20604;-80
2021/07/02 12:42:01;;;;;;;3.30;3.00;;;30.30;56.80;;;;;;5011609;28;20573;-80
2021/07/02 12:44:28;;;;;;;4.10;3.00;;;30.10;56.50;;;;;;5011754;28;20581;-80
2021/07/02 12:46:54;;;;;;;5.57;3.53;;;29.80;56.30;;;;;;5002102;28;20637;-80
2021/07/02 12:49:25;;;;;;;3.40;2.90;;;29.60;56.50;;;;;;4994334;28;20637;-80
2021/07/02 12:54:56;;;;;;;4.77;2.53;;;29.10;56.90;;;;;;5009249;28;20589;-79
2021/07/02 12:57:21;;;;;;;5.40;3.80;;;28.90;57.50;;;;;;5008513;28;20605;-80